createdAt,value
2019-05-22T00:02:06.778Z,100703.54
2019-05-22T00:04:42.225Z,100703.05
2019-05-22T00:07:14.354Z,100708.59
2019-05-22T00:09:49.830Z,100701.39
2019-05-22T00:12:21.278Z,100709.34
2019-05-22T00:14:52.777Z,100711.14
2019-05-22T00:17:30.801Z,100704.66
2019-05-22T00:20:03.468Z,100706.70
2019-05-22T00:22:35.490Z,100706.33
2019-05-22T00:25:11.912Z,100707.32
2019-05-22T00:27:43.689Z,100711.89
2019-05-22T00:30:16.603Z,100712.63
2019-05-22T00:32:48.003Z,100717.06
2019-05-22T00:35:21.402Z,100722.52
2019-05-22T00:37:52.200Z,100723.26
2019-05-22T00:40:25.819Z,100725.55
2019-05-22T00:43:04.035Z,100721.23
2019-05-22T00:45:31.382Z,100716.79
2019-05-22T00:48:03.206Z,100726.04
2019-05-22T00:51:00.840Z,100727.30
2019-05-22T00:53:51.898Z,100723.63
2019-05-22T00:56:33.667Z,100735.25
2019-05-22T00:59:09.216Z,100739.20
2019-05-22T01:01:45.710Z,100732.60
2019-05-22T01:04:18.274Z,100745.49
2019-05-22T01:06:49.175Z,100739.54
2019-05-22T01:09:25.687Z,100740.06
2019-05-22T01:11:56.422Z,100750.05
2019-05-22T01:14:42.019Z,100751.05
2019-05-22T01:17:00.286Z,100742.19
2019-05-22T01:19:30.754Z,100743.30
2019-05-22T01:22:02.372Z,100751.25
2019-05-22T01:24:33.292Z,100745.58
2019-05-22T01:27:04.648Z,100751.00
2019-05-22T01:29:36.559Z,100748.11
2019-05-22T01:32:18.258Z,100741.02
2019-05-22T01:34:48.752Z,100738.70
2019-05-22T01:37:19.611Z,100748.11
2019-05-22T01:40:07.446Z,100746.59
2019-05-22T01:42:42.217Z,100753.41
2019-05-22T01:45:15.943Z,100746.44
2019-05-22T01:47:56.776Z,100741.38
2019-05-22T01:50:38.444Z,100738.84
2019-05-22T01:53:08.930Z,100739.20
2019-05-22T01:55:39.786Z,100737.41
2019-05-22T01:58:11.016Z,100738.41
2019-05-22T02:00:42.163Z,100744.73
2019-05-22T02:03:14.664Z,100747.98
2019-05-22T02:05:44.655Z,100751.65
2019-05-22T02:08:15.264Z,100743.42
2019-05-22T02:10:47.002Z,100745.20
2019-05-22T02:13:21.563Z,100753.33
2019-05-22T02:15:52.296Z,100741.30
2019-05-22T02:18:23.292Z,100762.12
2019-05-22T02:20:53.978Z,100762.64
2019-05-22T02:23:24.951Z,100757.23
2019-05-22T02:25:55.440Z,100774.98
2019-05-22T02:28:27.442Z,100778.93
2019-05-22T02:30:57.781Z,100771.96
2019-05-22T02:33:30.456Z,100774.48
2019-05-22T02:36:01.351Z,100779.79
2019-05-22T02:38:31.718Z,100783.45
2019-05-22T02:41:04.330Z,100794.69
2019-05-22T02:43:36.032Z,100795.19
2019-05-22T02:46:07.735Z,100790.66
2019-05-22T02:48:42.403Z,100792.66
2019-05-22T02:51:12.659Z,100790.91
2019-05-22T02:53:43.174Z,100793.19
2019-05-22T02:56:13.562Z,100795.97
2019-05-22T02:58:44.195Z,100800.16
2019-05-22T03:01:16.179Z,100803.05
2019-05-22T03:03:47.368Z,100806.78
2019-05-22T03:06:18.044Z,100815.89
2019-05-22T03:09:13.742Z,100810.79
2019-05-22T03:11:47.929Z,100820.39
2019-05-22T03:14:20.321Z,100816.63
2019-05-22T03:16:52.617Z,100815.84
2019-05-22T03:19:34.111Z,100819.39
2019-05-22T03:22:17.444Z,100819.63
2019-05-22T03:24:47.553Z,100826.17
2019-05-22T03:27:19.600Z,100822.28
2019-05-22T03:29:55.378Z,100824.97
2019-05-22T03:32:26.262Z,100825.46
2019-05-22T03:34:56.598Z,100834.05
2019-05-22T03:37:27.068Z,100837.95
2019-05-22T03:39:57.711Z,100843.35
2019-05-22T03:42:27.649Z,100843.30
2019-05-22T03:44:57.603Z,100849.37
2019-05-22T03:47:28.737Z,100845.58
2019-05-22T03:49:58.989Z,100850.86
2019-05-22T03:52:30.647Z,100856.67
2019-05-22T03:55:01.612Z,100854.26
2019-05-22T03:57:32.360Z,100857.28
2019-05-22T04:00:04.450Z,100858.55
2019-05-22T04:02:36.480Z,100862.73
2019-05-22T04:05:09.048Z,100859.94
2019-05-22T04:07:41.431Z,100861.59
2019-05-22T04:10:12.133Z,100869.80
2019-05-22T04:12:43.182Z,100865.98
2019-05-22T04:15:14.172Z,100869.11
2019-05-22T04:17:45.500Z,100870.77
2019-05-22T04:20:19.566Z,100860.48
2019-05-22T04:22:55.843Z,100862.77
2019-05-22T04:25:26.929Z,100869.08
2019-05-22T04:27:57.551Z,100871.00
2019-05-22T04:30:28.537Z,100870.23
2019-05-22T04:32:59.384Z,100868.74
2019-05-22T04:35:29.825Z,100878.14
2019-05-22T04:38:00.454Z,100875.08
2019-05-22T04:40:48.774Z,100883.16
2019-05-22T04:43:21.290Z,100878.11
2019-05-22T04:45:53.789Z,100881.20
2019-05-22T04:48:25.212Z,100887.58
2019-05-22T04:50:56.393Z,100885.59
2019-05-22T04:53:27.471Z,100882.30
2019-05-22T04:55:57.372Z,100891.13
2019-05-22T04:58:29.965Z,100894.65
2019-05-22T05:01:00.490Z,100891.09
2019-05-22T05:03:31.323Z,100896.91
2019-05-22T05:06:05.995Z,100902.55
2019-05-22T05:08:35.341Z,100901.16
2019-05-22T05:11:05.810Z,100900.92
2019-05-22T05:13:36.758Z,100898.64
2019-05-22T05:16:07.348Z,100894.88
2019-05-22T05:18:37.440Z,100901.79
2019-05-22T05:21:07.788Z,100905.54
2019-05-22T05:23:37.749Z,100903.15
2019-05-22T05:26:07.744Z,100907.59
2019-05-22T05:28:37.953Z,100902.32
2019-05-22T05:31:09.779Z,100911.19
2019-05-22T05:34:21.850Z,100911.32
2019-05-22T05:36:52.148Z,100903.02
2019-05-22T05:40:05.795Z,100922.34
2019-05-22T05:42:36.607Z,100917.47
2019-05-22T05:45:13.399Z,100922.31
2019-05-22T05:47:47.958Z,100910.59
2019-05-22T05:50:20.238Z,100943.86
2019-05-22T05:52:52.254Z,100929.52
2019-05-22T05:55:25.231Z,100935.83
2019-05-22T05:58:26.963Z,100940.02
2019-05-22T06:01:39.350Z,100939.25
2019-05-22T06:04:10.054Z,100948.68
2019-05-22T06:07:07.994Z,100947.78
2019-05-22T06:09:38.088Z,100950.67
2019-05-22T06:12:09.255Z,100951.16
2019-05-22T06:14:41.310Z,100961.89
2019-05-22T06:17:47.386Z,100961.30
2019-05-22T06:20:20.194Z,100964.55
2019-05-22T06:23:50.747Z,100964.02
2019-05-22T06:26:59.024Z,100965.09
2019-05-22T06:29:53.084Z,100975.05
2019-05-22T06:33:02.321Z,100973.12
2019-05-22T06:35:36.119Z,100971.72
2019-05-22T06:38:54.364Z,100970.02
2019-05-22T06:41:29.185Z,100975.43
2019-05-22T06:44:40.787Z,100979.48
2019-05-22T06:47:14.110Z,100980.20
2019-05-22T06:49:49.272Z,100982.36
2019-05-22T06:52:19.335Z,100985.62
2019-05-22T06:54:49.671Z,100989.94
2019-05-22T06:57:26.551Z,100986.95
2019-05-22T07:00:14.239Z,100987.82
2019-05-22T07:02:42.584Z,100994.30
2019-05-22T07:05:13.638Z,100993.17
2019-05-22T07:07:44.079Z,101002.91
2019-05-22T07:10:14.588Z,101013.30
2019-05-22T07:12:45.572Z,101005.19
2019-05-22T07:15:39.495Z,101005.39
2019-05-22T07:18:12.780Z,101006.92
2019-05-22T07:20:42.684Z,101009.42
2019-05-22T07:23:16.074Z,101007.69
2019-05-22T07:25:47.232Z,101015.50
2019-05-22T07:28:20.587Z,101018.16
2019-05-22T07:30:51.660Z,101016.86
2019-05-22T07:33:23.814Z,101023.42
2019-05-22T07:36:09.583Z,101022.48
2019-05-22T07:38:25.479Z,101029.95
2019-05-22T07:40:56.232Z,101026.44
2019-05-22T07:43:27.678Z,101037.12
2019-05-22T07:45:57.702Z,101033.11
2019-05-22T07:48:28.951Z,101042.70
2019-05-22T07:50:59.424Z,101038.88
2019-05-22T07:53:29.789Z,101044.23
2019-05-22T07:56:02.601Z,101044.19
2019-05-22T07:58:33.341Z,101048.92
2019-05-22T08:01:04.886Z,101044.69
2019-05-22T08:03:35.789Z,101066.89
2019-05-22T08:06:08.310Z,101058.97
2019-05-22T08:08:39.833Z,101050.19
2019-05-22T08:11:10.508Z,101056.84
2019-05-22T08:13:41.830Z,101059.42
2019-05-22T08:16:12.219Z,101061.66
2019-05-22T08:18:42.930Z,101060.67
2019-05-22T08:21:13.194Z,101068.70
2019-05-22T08:23:43.185Z,101066.77
2019-05-22T08:26:14.725Z,101075.59
2019-05-22T08:28:44.897Z,101072.13
2019-05-22T08:31:15.925Z,101082.41
2019-05-22T08:33:46.510Z,101074.69
2019-05-22T08:36:17.290Z,101093.03
2019-05-22T08:38:47.637Z,101087.04
2019-05-22T08:41:22.685Z,101084.44
2019-05-22T08:44:14.776Z,101094.53
2019-05-22T08:46:25.369Z,101084.83
2019-05-22T08:48:55.897Z,101095.29
2019-05-22T08:51:25.708Z,101100.16
2019-05-22T08:53:57.269Z,101098.98
2019-05-22T08:56:29.021Z,101096.87
2019-05-22T08:59:18.112Z,101105.43
2019-05-22T09:01:32.033Z,101103.27
2019-05-22T09:04:02.043Z,101114.17
2019-05-22T09:06:32.355Z,101115.75
2019-05-22T09:09:02.522Z,101118.25
2019-05-22T09:11:32.917Z,101115.42
2019-05-22T09:14:02.985Z,101110.61
2019-05-22T09:16:33.416Z,101117.20
2019-05-22T09:19:03.422Z,101121.21
2019-05-22T09:21:34.527Z,101126.35
2019-05-22T09:24:04.706Z,101128.91
2019-05-22T09:26:34.639Z,101124.36
2019-05-22T09:29:05.188Z,101126.30
2019-05-22T09:31:35.296Z,101131.63
2019-05-22T09:34:06.967Z,101132.61
2019-05-22T09:36:37.351Z,101130.90
2019-05-22T09:39:09.576Z,101132.98
2019-05-22T09:41:39.537Z,101143.47
2019-05-22T09:44:09.416Z,101142.63
2019-05-22T09:46:40.081Z,101147.67
2019-05-22T09:49:11.287Z,101140.91
2019-05-22T09:51:41.828Z,101154.25
2019-05-22T09:54:12.031Z,101155.42
2019-05-22T09:56:42.051Z,101150.52
2019-05-22T09:59:12.287Z,101144.64
2019-05-22T10:01:42.699Z,101148.66
2019-05-22T10:04:13.535Z,101150.69
2019-05-22T10:06:43.445Z,101152.58
2019-05-22T10:09:13.629Z,101156.86
2019-05-22T10:11:43.841Z,101163.31
2019-05-22T10:14:14.931Z,101161.46
2019-05-22T10:16:45.064Z,101149.02
2019-05-22T10:19:15.334Z,101163.98
2019-05-22T10:21:45.717Z,101166.88
2019-05-22T10:24:15.678Z,101170.03
2019-05-22T10:26:45.780Z,101180.72
2019-05-22T10:29:15.620Z,101181.77
2019-05-22T10:31:45.496Z,101189.11
2019-05-22T10:34:15.561Z,101194.07
2019-05-22T10:36:45.434Z,101186.42
2019-05-22T10:39:15.737Z,101185.85
2019-05-22T10:41:45.854Z,101184.75
2019-05-22T10:44:15.824Z,101188.73
2019-05-22T10:46:47.205Z,101184.28
2019-05-22T10:49:17.105Z,101185.61
2019-05-22T10:51:48.065Z,101189.11
2019-05-22T10:54:18.374Z,101195.19
2019-05-22T10:56:49.295Z,101195.17
2019-05-22T10:59:19.177Z,101191.14
2019-05-22T11:01:49.588Z,101191.61
2019-05-22T11:04:20.733Z,101191.47
2019-05-22T11:06:51.025Z,101197.12
2019-05-22T11:09:21.755Z,101196.88
2019-05-22T11:11:51.668Z,101200.30
2019-05-22T11:14:21.544Z,101192.70
2019-05-22T11:16:51.420Z,101195.02
2019-05-22T11:19:21.595Z,101191.08
2019-05-22T11:21:51.912Z,101196.02
2019-05-22T11:24:22.007Z,101195.38
2019-05-22T11:26:52.410Z,101201.41
2019-05-22T11:29:22.575Z,101199.63
2019-05-22T11:31:52.714Z,101202.05
2019-05-22T11:34:22.746Z,101200.31
2019-05-22T11:36:53.368Z,101200.45
2019-05-22T11:39:38.645Z,101195.20
2019-05-22T11:41:58.655Z,101198.71
2019-05-22T11:44:29.526Z,101190.20
2019-05-22T11:47:00.732Z,101192.75
2019-05-22T11:49:30.858Z,101186.92
2019-05-22T11:52:00.773Z,101191.00
2019-05-22T11:54:31.514Z,101187.73
2019-05-22T11:57:01.454Z,101191.38
2019-05-22T11:59:31.699Z,101192.75
2019-05-22T12:02:02.360Z,101196.80
2019-05-22T12:04:47.322Z,101201.58
2019-05-22T12:07:07.132Z,101200.92
2019-05-22T12:09:37.561Z,101199.37
2019-05-22T12:12:22.145Z,101205.53
2019-05-22T12:14:52.249Z,101205.81
2019-05-22T12:17:37.360Z,101199.05
2019-05-22T12:19:55.142Z,101207.62
2019-05-22T12:22:25.630Z,101203.59
2019-05-22T12:24:57.463Z,101202.59
2019-05-22T12:27:28.591Z,101203.23
2019-05-22T12:30:02.003Z,101202.36
2019-05-22T12:32:36.058Z,101203.36
2019-05-22T12:35:06.884Z,101204.76
2019-05-22T12:37:41.599Z,101203.88
2019-05-22T12:40:14.326Z,101207.80
2019-05-22T12:42:45.128Z,101212.13
2019-05-22T12:45:16.366Z,101223.42
2019-05-22T12:47:46.823Z,101213.73
2019-05-22T12:50:19.145Z,101210.92
2019-05-22T12:52:50.965Z,101213.34
2019-05-22T12:55:21.430Z,101219.42
2019-05-22T12:57:51.924Z,101212.81
2019-05-22T13:00:25.062Z,101211.14
2019-05-22T13:02:56.665Z,101212.41
2019-05-22T13:05:29.394Z,101207.47
2019-05-22T13:07:59.392Z,101203.93
2019-05-22T13:10:30.281Z,101203.49
2019-05-22T13:13:00.628Z,101204.78
2019-05-22T13:15:32.064Z,101212.39
2019-05-22T13:18:03.150Z,101211.12
2019-05-22T13:20:42.674Z,101209.58
2019-05-22T13:23:09.400Z,101208.69
2019-05-22T13:25:41.191Z,101215.06
2019-05-22T13:28:13.910Z,101208.44
2019-05-22T13:30:48.459Z,101211.38
2019-05-22T13:33:22.113Z,101227.98
2019-05-22T13:35:54.013Z,101218.73
2019-05-22T13:38:25.010Z,101219.38
2019-05-22T13:40:56.094Z,101216.93
2019-05-22T13:43:27.596Z,101213.47
2019-05-22T13:45:57.524Z,101216.22
2019-05-22T13:48:28.589Z,101225.39
2019-05-22T13:51:00.317Z,101223.11
2019-05-22T13:53:30.773Z,101221.19
2019-05-22T13:56:01.174Z,101217.02
2019-05-22T13:58:31.853Z,101222.63
2019-05-22T14:01:01.851Z,101225.67
2019-05-22T14:03:32.000Z,101219.95
2019-05-22T14:06:02.955Z,101227.66
2019-05-22T14:08:33.684Z,101227.28
2019-05-22T14:11:06.041Z,101225.36
2019-05-22T14:13:37.177Z,101225.48
2019-05-22T14:16:07.354Z,101224.19
2019-05-22T14:18:37.427Z,101223.47
2019-05-22T14:21:07.510Z,101221.91
2019-05-22T14:23:38.645Z,101230.08
2019-05-22T14:26:09.020Z,101202.60
2019-05-22T14:28:39.387Z,101226.17
2019-05-22T14:31:11.186Z,101218.06
2019-05-22T14:33:41.818Z,101219.97
2019-05-22T14:36:12.209Z,101221.77
2019-05-22T14:38:43.100Z,101224.16
2019-05-22T14:41:13.365Z,101221.36
2019-05-22T14:43:43.675Z,101193.45
2019-05-22T14:46:13.968Z,101226.98
2019-05-22T14:48:43.947Z,101222.97
2019-05-22T14:51:14.824Z,101225.22
2019-05-22T14:53:46.566Z,101221.03
2019-05-22T14:56:16.464Z,101226.55
2019-05-22T14:58:49.155Z,101220.98
2019-05-22T15:01:21.278Z,101216.15
2019-05-22T15:03:56.125Z,101217.31
2019-05-22T15:06:31.653Z,101221.89
2019-05-22T15:09:02.035Z,101218.20
2019-05-22T15:11:32.697Z,101217.27
2019-05-22T15:14:02.675Z,101221.19
2019-05-22T15:16:33.243Z,101215.82
2019-05-22T15:19:04.122Z,101213.84
2019-05-22T15:21:34.442Z,101218.68
2019-05-22T15:24:06.392Z,101222.24
2019-05-22T15:26:37.053Z,101213.00
2019-05-22T15:29:08.395Z,101209.84
2019-05-22T15:31:38.306Z,101208.56
2019-05-22T15:34:08.786Z,101205.27
2019-05-22T15:36:39.637Z,101203.00
2019-05-22T15:39:11.992Z,101203.98
2019-05-22T15:41:43.105Z,101200.13
2019-05-22T15:44:13.719Z,101201.17
2019-05-22T15:46:45.849Z,101192.29
2019-05-22T15:49:16.174Z,101198.78
2019-05-22T15:51:50.321Z,101196.37
2019-05-22T15:54:20.762Z,101193.59
2019-05-22T15:56:51.201Z,101197.00
2019-05-22T15:59:22.616Z,101206.55
2019-05-22T16:01:53.269Z,101206.04
2019-05-22T16:04:24.292Z,101207.05
2019-05-22T16:06:54.942Z,101206.44
2019-05-22T16:09:27.358Z,101201.36
2019-05-22T16:11:57.443Z,101199.80
2019-05-22T16:14:31.280Z,101203.36
2019-05-22T16:17:03.941Z,101206.66
2019-05-22T16:19:36.149Z,101205.39
2019-05-22T16:22:09.524Z,101202.73
2019-05-22T16:24:41.017Z,101203.63
2019-05-22T16:27:14.149Z,101202.98
2019-05-22T16:29:44.615Z,101197.92
2019-05-22T16:32:17.828Z,101201.73
2019-05-22T16:34:48.864Z,101196.37
2019-05-22T16:37:19.206Z,101199.19
2019-05-22T16:39:50.676Z,101191.57
2019-05-22T16:42:21.635Z,101189.78
2019-05-22T16:44:53.085Z,101202.35
2019-05-22T16:47:24.744Z,101193.97
2019-05-22T16:49:55.688Z,101190.55
2019-05-22T16:52:28.969Z,101195.73
2019-05-22T16:54:59.881Z,101200.19
2019-05-22T16:57:31.584Z,101189.68
2019-05-22T17:00:02.395Z,101198.55
2019-05-22T17:02:36.591Z,101191.05
2019-05-22T17:05:10.531Z,101189.39
2019-05-22T17:07:41.347Z,101191.05
2019-05-22T17:10:12.321Z,101194.11
2019-05-22T17:12:43.788Z,101192.96
2019-05-22T17:15:18.329Z,101191.81
2019-05-22T17:17:49.631Z,101182.40
2019-05-22T17:20:22.364Z,101190.91
2019-05-22T17:22:52.480Z,101195.25
2019-05-22T17:25:22.838Z,101192.96
2019-05-22T17:27:52.962Z,101190.80
2019-05-22T17:30:25.127Z,101193.70
2019-05-22T17:32:56.687Z,101185.72
2019-05-22T17:35:28.155Z,101191.67
2019-05-22T17:37:59.345Z,101189.14
2019-05-22T17:40:29.441Z,101182.42
2019-05-22T17:43:02.301Z,101183.31
2019-05-22T17:45:32.800Z,101178.12
2019-05-22T17:48:04.442Z,101185.47
2019-05-22T17:50:34.935Z,101185.23
2019-05-22T17:53:06.013Z,101186.87
2019-05-22T17:55:36.491Z,101191.05
2019-05-22T17:58:06.503Z,101189.66
2019-05-22T18:00:40.992Z,101193.97
2019-05-22T18:03:11.839Z,101195.91
2019-05-22T18:05:42.090Z,101194.88
2019-05-22T18:08:12.715Z,101196.89
2019-05-22T18:10:45.819Z,101196.91
2019-05-22T18:13:16.397Z,101195.11
2019-05-22T18:15:46.848Z,101185.73
2019-05-22T18:18:17.797Z,101203.23
2019-05-22T18:20:48.843Z,101202.99
2019-05-22T18:23:18.830Z,101199.69
2019-05-22T18:25:48.849Z,101206.62
2019-05-22T18:28:19.275Z,101200.39
2019-05-22T18:30:49.751Z,101199.68
2019-05-22T18:33:19.922Z,101197.78
2019-05-22T18:35:49.995Z,101196.14
2019-05-22T18:38:19.993Z,101200.31
2019-05-22T18:40:51.579Z,101201.72
2019-05-22T18:43:23.098Z,101199.31
2019-05-22T18:45:54.325Z,101200.00
2019-05-22T18:48:24.615Z,101204.95
2019-05-22T18:50:55.132Z,101202.14
2019-05-22T18:53:25.797Z,101211.27
2019-05-22T18:55:55.753Z,101216.46
2019-05-22T18:58:26.328Z,101215.03
2019-05-22T19:00:56.632Z,101211.72
2019-05-22T19:03:26.598Z,101219.40
2019-05-22T19:05:57.308Z,101224.34
2019-05-22T19:08:27.439Z,101229.16
2019-05-22T19:10:57.387Z,101228.73
2019-05-22T19:13:27.250Z,101226.80
2019-05-22T19:15:57.267Z,101232.59
2019-05-22T19:18:27.552Z,101232.05
2019-05-22T19:20:57.672Z,101233.91
2019-05-22T19:23:27.548Z,101230.83
2019-05-22T19:25:57.558Z,101229.80
2019-05-22T19:28:42.008Z,101232.73
2019-05-22T19:30:59.743Z,101228.78
2019-05-22T19:33:30.165Z,101233.73
2019-05-22T19:36:01.706Z,101234.16
2019-05-22T19:38:33.634Z,101238.08
2019-05-22T19:41:04.047Z,101243.27
2019-05-22T19:43:34.423Z,101246.08
2019-05-22T19:46:04.788Z,101242.64
2019-05-22T19:48:34.903Z,101247.07
2019-05-22T19:51:05.542Z,101248.34
2019-05-22T19:53:36.067Z,101247.97
2019-05-22T19:56:06.398Z,101250.85
2019-05-22T19:58:37.674Z,101250.25
2019-05-22T20:01:07.970Z,101258.66
2019-05-22T20:03:38.410Z,101257.72
2019-05-22T20:06:08.365Z,101254.49
2019-05-22T20:08:38.326Z,101261.76
2019-05-22T20:11:08.607Z,101262.56
2019-05-22T20:13:40.343Z,101259.47
2019-05-22T20:16:11.174Z,101267.52
2019-05-22T20:18:41.390Z,101270.02
2019-05-22T20:21:11.739Z,101272.88
2019-05-22T20:23:42.232Z,101269.15
2019-05-22T20:26:13.773Z,101271.41
2019-05-22T20:28:43.984Z,101271.64
2019-05-22T20:31:14.823Z,101272.23
2019-05-22T20:33:44.796Z,101274.36
2019-05-22T20:36:15.174Z,101273.42
2019-05-22T20:38:45.948Z,101271.13
2019-05-22T20:41:15.963Z,101271.85
2019-05-22T20:43:45.934Z,101276.64
2019-05-22T20:46:18.728Z,101276.59
2019-05-22T20:48:50.688Z,101274.13
2019-05-22T20:51:20.868Z,101277.14
2019-05-22T20:53:54.532Z,101275.94
2019-05-22T20:56:24.708Z,101287.80
2019-05-22T20:58:55.219Z,101278.64
2019-05-22T21:01:26.286Z,101286.09
2019-05-22T21:03:57.547Z,101286.17
2019-05-22T21:06:29.268Z,101287.80
2019-05-22T21:09:00.125Z,101284.06
2019-05-22T21:11:31.918Z,101283.93
2019-05-22T21:14:03.235Z,101282.50
2019-05-22T21:16:34.315Z,101288.81
2019-05-22T21:19:04.569Z,101286.82
2019-05-22T21:21:35.133Z,101294.40
2019-05-22T21:24:11.194Z,101293.14
2019-05-22T21:26:39.198Z,101294.63
2019-05-22T21:29:09.115Z,101293.31
2019-05-22T21:31:39.771Z,101296.28
2019-05-22T21:34:09.714Z,101295.98
2019-05-22T21:36:40.167Z,101298.95
2019-05-22T21:39:13.201Z,101299.57
2019-05-22T21:41:43.704Z,101301.05
2019-05-22T21:44:14.325Z,101302.68
2019-05-22T21:46:44.533Z,101305.20
2019-05-22T21:49:15.855Z,101300.91
2019-05-22T21:51:46.216Z,101310.70
2019-05-22T21:54:17.173Z,101305.59
2019-05-22T21:56:47.727Z,101310.65
2019-05-22T21:59:17.971Z,101312.41
2019-05-22T22:02:03.191Z,101311.97
2019-05-22T22:04:37.031Z,101313.77
2019-05-22T22:07:08.188Z,101309.53
2019-05-22T22:09:40.170Z,101310.73
2019-05-22T22:12:12.327Z,101311.90
2019-05-22T22:14:43.137Z,101313.23
2019-05-22T22:17:14.589Z,101312.42
2019-05-22T22:19:44.467Z,101320.61
2019-05-22T22:22:17.990Z,101314.59
2019-05-22T22:24:48.541Z,101323.11
2019-05-22T22:27:18.574Z,101321.03
2019-05-22T22:29:50.354Z,101316.20
2019-05-22T22:32:22.557Z,101322.58
2019-05-22T22:34:53.331Z,101321.91
2019-05-22T22:37:24.941Z,101322.52
2019-05-22T22:39:56.618Z,101324.00
2019-05-22T22:42:29.301Z,101323.86
2019-05-22T22:45:01.156Z,101332.69
2019-05-22T22:47:35.909Z,101324.58
2019-05-22T22:50:08.025Z,101335.21
2019-05-22T22:52:39.854Z,101335.28
2019-05-22T22:55:12.953Z,101334.30
2019-05-22T22:57:42.925Z,101338.99
2019-05-22T23:00:18.611Z,101337.52
2019-05-22T23:02:49.416Z,101336.27
2019-05-22T23:05:19.707Z,101335.58
2019-05-22T23:07:50.433Z,101334.32
2019-05-22T23:10:23.104Z,101333.75
2019-05-22T23:12:55.065Z,101338.91
2019-05-22T23:15:26.474Z,101336.91
2019-05-22T23:17:56.785Z,101314.98
2019-05-22T23:20:26.276Z,101344.69
2019-05-22T23:22:54.639Z,101346.85
2019-05-22T23:25:25.883Z,101348.80
2019-05-22T23:27:55.958Z,101349.84
2019-05-22T23:30:25.982Z,101350.42
2019-05-22T23:32:57.366Z,101354.86
2019-05-22T23:35:27.892Z,101344.55
2019-05-22T23:37:59.207Z,101347.58
2019-05-22T23:40:33.141Z,101318.73
2019-05-22T23:43:05.000Z,101342.85
2019-05-22T23:45:35.957Z,101332.47
2019-05-22T23:48:16.321Z,101336.47
2019-05-22T23:50:48.339Z,101341.01
2019-05-22T23:53:18.669Z,101337.26
2019-05-22T23:55:50.236Z,101340.45
2019-05-22T23:58:22.999Z,101333.97
